Time;durP1;ratioP1;P1;durP2;ratioP2;P2;SDS_P1;SDS_P2;PMS_P1;PMS_P2;Temp;Humidity;BMP_temperature;BMP_pressure;BME280_temperature;BME280_humidity;BME280_pressure;Samples;Min_cycle;Max_cycle;Signal;HPM_P1;HPM_P2
2022/12/19 09:39:31;;;;;;;101.33;61.73;;;;;;;17.08;100.00;102122.59;4969299;28;20465;-93
2022/12/19 13:27:03;;;;;;;11.63;3.43;;;;;;;21.11;100.00;101984.53;5105121;27;20548;-92
2022/12/19 13:29:50;;;;;;;13.50;3.30;;;;;;;20.97;100.00;101988.56;5038023;28;20456;-92
2022/12/19 13:32:20;;;;;;;9.80;2.70;;;;;;;20.79;100.00;101988.53;5056779;28;20442;-94
2022/12/19 13:34:58;;;;;;;10.03;3.63;;;;;;;20.57;100.00;101977.06;5070807;28;20445;-94
2022/12/19 13:37:50;;;;;;;12.53;4.40;;;;;;;20.43;100.00;101981.88;5085415;28;20426;-94
2022/12/19 13:40:56;;;;;;;33.27;14.43;;;;;;;20.25;100.00;101973.47;5057146;28;20454;-95
2022/12/19 13:43:46;;;;;;;25.97;11.70;;;;;;;20.04;100.00;101948.91;5070820;28;20571;-93
2022/12/19 13:46:46;;;;;;;67.27;33.33;;;;;;;19.94;100.00;101958.59;5041644;28;20485;-94
2022/12/19 13:49:22;;;;;;;57.50;31.77;;;;;;;19.80;100.00;101953.41;5056166;28;20449;-94
2022/12/19 13:51:57;;;;;;;39.90;20.60;;;;;;;19.71;100.00;101938.94;5052446;28;20445;-93
2022/12/19 14:01:39;;;;;;;15.20;3.80;;;;;;;20.66;100.00;101926.50;5064569;28;20530;-91
2022/12/19 14:04:29;;;;;;;10.60;3.50;;;;;;;20.90;100.00;101951.66;5036672;28;20478;-91
2022/12/19 14:07:05;;;;;;;9.87;4.93;;;;;;;20.92;100.00;101941.16;5048555;28;20572;-89
2022/12/19 14:09:41;;;;;;;10.77;3.70;;;;;;;20.88;100.00;101918.53;5047685;28;20940;-89
2022/12/19 14:15:42;;;;;;;9.97;3.63;;;;;;;21.12;100.00;101916.72;5041140;28;20438;-90
2022/12/19 14:18:20;;;;;;;9.90;3.57;;;;;;;21.25;100.00;101913.78;5038307;28;20543;-89
2022/12/19 14:21:25;;;;;;;10.43;3.30;;;;;;;21.37;100.00;101928.56;5047337;28;20423;-89
2022/12/19 14:24:21;;;;;;;17.43;3.87;;;;;;;21.49;100.00;101925.00;5050233;28;20932;-89
2022/12/19 14:27:12;;;;;;;15.60;4.40;;;;;;;21.57;100.00;101919.06;5064650;28;20493;-88
2022/12/19 14:30:00;;;;;;;13.00;4.90;;;;;;;21.60;100.00;101908.31;5062553;28;20427;-89
2022/12/19 14:32:51;;;;;;;11.40;4.53;;;;;;;21.64;100.00;101900.34;5024412;28;20446;-89
2022/12/19 14:35:49;;;;;;;15.00;5.80;;;;;;;21.63;100.00;101904.22;5069572;28;20446;-89
2022/12/19 14:38:39;;;;;;;21.23;8.00;;;;;;;21.64;100.00;101923.47;5045372;28;20446;-89
2022/12/19 14:44:50;;;;;;;18.13;7.00;;;;;;;21.73;100.00;101901.72;5040180;28;20467;-89
2022/12/19 14:47:40;;;;;;;21.23;7.93;;;;;;;21.77;100.00;101911.25;5035503;28;20439;-89
2022/12/19 14:50:33;;;;;;;13.80;9.43;;;;;;;21.73;100.00;101903.66;5008377;28;20444;-88
2022/12/19 14:53:21;;;;;;;15.70;8.80;;;;;;;21.72;100.00;101911.16;5025859;28;20444;-89
2022/12/19 14:56:11;;;;;;;14.27;7.53;;;;;;;21.67;100.00;101905.44;5035381;28;20443;-89
2022/12/19 14:58:59;;;;;;;21.67;8.67;;;;;;;21.66;100.00;101910.16;5008656;28;20446;-89
2022/12/19 15:01:51;;;;;;;31.60;15.63;;;;;;;21.58;100.00;101907.72;5002985;28;20785;-90
2022/12/19 15:04:22;;;;;;;20.93;11.03;;;;;;;21.47;100.00;101918.81;5034190;28;20437;-89
2022/12/19 15:07:22;;;;;;;19.07;10.97;;;;;;;21.34;100.00;101906.81;5021324;28;21070;-89
2022/12/19 15:09:50;;;;;;;20.70;11.80;;;;;;;21.33;100.00;101909.84;5002468;28;20546;-89
2022/12/19 15:16:06;;;;;;;38.60;18.20;;;;;;;21.10;100.00;101898.59;5035914;28;20442;-89
2022/12/19 15:18:38;;;;;;;41.00;20.50;;;;;;;20.98;100.00;101902.13;5017732;28;20864;-89
2022/12/19 15:21:12;;;;;;;31.83;18.77;;;;;;;20.98;100.00;101912.41;5030991;28;20938;-89
2022/12/19 15:23:43;;;;;;;41.33;14.20;;;;;;;20.90;100.00;101909.97;5023815;28;20439;-89
2022/12/19 15:26:13;;;;;;;23.10;10.77;;;;;;;20.78;100.00;101900.75;5018567;28;20988;-88
2022/12/19 15:28:49;;;;;;;23.53;12.43;;;;;;;20.67;100.00;101900.41;5034102;28;20455;-89
2022/12/19 15:31:33;;;;;;;24.97;11.43;;;;;;;20.63;100.00;101910.28;5034758;28;20461;-89
2022/12/19 15:34:23;;;;;;;30.60;11.97;;;;;;;20.51;100.00;101914.09;5068011;28;20452;-89
2022/12/19 15:37:11;;;;;;;24.83;12.20;;;;;;;20.43;100.00;101917.16;5023500;28;20439;-89
2022/12/19 15:39:39;;;;;;;19.50;10.37;;;;;;;20.37;100.00;101923.66;5018493;28;20958;-88
2022/12/19 15:42:21;;;;;;;21.47;9.77;;;;;;;20.20;100.00;101917.81;5018939;28;20452;-89
2022/12/19 15:44:50;;;;;;;19.23;10.53;;;;;;;20.09;100.00;101929.66;5018465;28;20501;-89
2022/12/19 15:47:31;;;;;;;27.93;16.37;;;;;;;20.01;100.00;101926.06;5017626;28;20988;-89
2022/12/19 15:50:05;;;;;;;28.73;16.90;;;;;;;19.87;100.00;101907.84;5025524;28;20538;-88
2022/12/19 15:52:37;;;;;;;31.97;13.83;;;;;;;19.78;100.00;101917.56;5048797;28;20458;-89
2022/12/19 15:55:06;;;;;;;37.33;19.87;;;;;;;19.62;100.00;101902.31;5033991;28;20538;-89
2022/12/19 15:57:35;;;;;;;59.30;28.43;;;;;;;19.52;100.00;101901.09;5017654;28;20531;-89
2022/12/19 16:00:21;;;;;;;36.67;19.47;;;;;;;19.48;100.00;101920.09;5033748;28;20513;-89
2022/12/19 16:02:50;;;;;;;42.33;18.30;;;;;;;19.39;100.00;101934.44;5031866;28;20451;-89
2022/12/19 16:05:37;;;;;;;45.30;23.47;;;;;;;19.38;100.00;101946.63;5033801;28;20972;-89
2022/12/19 16:08:13;;;;;;;32.00;17.30;;;;;;;19.30;100.00;101947.72;5005098;28;20921;-89
2022/12/19 16:10:45;;;;;;;42.50;22.57;;;;;;;19.31;100.00;101952.19;5017728;28;20543;-89
2022/12/19 16:13:28;;;;;;;58.90;30.73;;;;;;;19.25;100.00;101940.06;5026332;28;20450;-89
2022/12/19 16:16:44;;;;;;;29.63;16.93;;;;;;;19.26;100.00;101946.44;5034152;28;20453;-89
2022/12/19 16:19:28;;;;;;;36.03;14.97;;;;;;;19.24;100.00;101948.63;5046649;28;20891;-89
2022/12/19 16:21:56;;;;;;;24.43;11.57;;;;;;;19.16;100.00;101944.16;5043015;28;20470;-88
2022/12/19 16:24:24;;;;;;;18.03;7.40;;;;;;;19.16;100.00;101935.84;5033698;28;20510;-89
2022/12/19 16:26:57;;;;;;;15.57;7.17;;;;;;;19.03;100.00;101924.00;5050756;28;20486;-89
2022/12/19 16:29:27;;;;;;;24.03;7.80;;;;;;;19.09;100.00;101942.50;5052938;28;20434;-90
2022/12/19 16:32:00;;;;;;;15.73;6.07;;;;;;;19.00;100.00;101941.91;5041764;28;20427;-89
2022/12/19 16:34:29;;;;;;;14.07;6.40;;;;;;;18.94;100.00;101954.72;5091169;28;20435;-89
2022/12/19 16:36:57;;;;;;;16.40;6.27;;;;;;;18.88;100.00;101968.59;5070883;28;20426;-87
2022/12/19 16:39:24;;;;;;;17.63;7.17;;;;;;;18.77;100.00;101959.06;5041536;28;20429;-88
2022/12/19 16:41:53;;;;;;;22.63;6.80;;;;;;;18.70;100.00;101960.13;5048355;28;20438;-88
2022/12/19 16:44:21;;;;;;;19.50;7.47;;;;;;;18.61;100.00;101965.06;5026981;28;20485;-88
2022/12/19 16:46:49;;;;;;;17.13;6.40;;;;;;;18.65;100.00;101976.56;5027652;28;20494;-89
2022/12/19 16:49:19;;;;;;;19.70;6.80;;;;;;;18.59;100.00;101970.81;5020349;28;20859;-85
2022/12/19 16:51:47;;;;;;;19.40;6.30;;;;;;;18.55;100.00;101971.44;5034114;28;20447;-86
2022/12/19 16:54:15;;;;;;;16.23;7.10;;;;;;;18.54;100.00;101965.03;5020047;28;20434;-87
2022/12/19 16:56:50;;;;;;;12.70;6.47;;;;;;;18.50;100.00;101952.69;5014980;28;20502;-88
2022/12/19 16:59:26;;;;;;;13.87;6.80;;;;;;;18.35;100.00;101924.41;5031214;28;21074;-86
2022/12/19 17:01:54;;;;;;;16.03;7.00;;;;;;;18.34;100.00;101942.09;5045053;28;20450;-87
2022/12/19 17:04:23;;;;;;;15.97;7.13;;;;;;;18.38;100.00;101943.38;5019111;28;20480;-86
2022/12/19 17:06:54;;;;;;;13.30;7.30;;;;;;;18.27;100.00;101927.44;5033686;28;20491;-85
2022/12/19 17:09:23;;;;;;;15.47;6.80;;;;;;;18.26;100.00;101929.34;5068325;28;20461;-87
2022/12/19 17:11:57;;;;;;;15.33;6.63;;;;;;;18.19;100.00;101927.63;5034233;28;20516;-86
2022/12/19 17:14:26;;;;;;;18.53;6.80;;;;;;;18.12;100.00;101922.09;5035724;28;20438;-86
2022/12/19 17:16:56;;;;;;;14.87;7.00;;;;;;;18.07;100.00;101923.84;5035675;28;20458;-86
2022/12/19 17:19:32;;;;;;;18.60;6.77;;;;;;;17.94;100.00;101913.63;5033099;28;20444;-86
2022/12/19 17:22:00;;;;;;;13.60;6.93;;;;;;;17.84;100.00;101915.97;5032991;28;20466;-85
2022/12/19 17:24:28;;;;;;;18.77;7.13;;;;;;;17.90;100.00;101932.53;5040505;28;21019;-86
2022/12/19 17:26:55;;;;;;;16.53;7.13;;;;;;;17.79;100.00;101922.13;5041588;28;20599;-85
2022/12/19 17:29:24;;;;;;;20.43;8.43;;;;;;;17.74;100.00;101913.63;5051790;28;20522;-86
2022/12/19 17:31:52;;;;;;;25.77;8.73;;;;;;;17.71;100.00;101925.09;5016101;28;20530;-86
2022/12/19 17:34:28;;;;;;;16.50;7.73;;;;;;;17.66;100.00;101932.34;5018784;28;20958;-86
2022/12/19 17:36:59;;;;;;;22.37;8.70;;;;;;;17.59;100.00;101932.31;5034558;28;20817;-85
2022/12/19 17:39:29;;;;;;;59.53;29.60;;;;;;;17.55;100.00;101942.06;5066956;28;20968;-85
2022/12/19 17:41:58;;;;;;;62.37;35.30;;;;;;;17.43;100.00;101930.78;5051749;28;20438;-86
2022/12/19 17:44:27;;;;;;;58.40;24.80;;;;;;;17.39;100.00;101925.88;5018950;28;20880;-86
2022/12/19 17:46:55;;;;;;;27.50;16.83;;;;;;;17.42;100.00;101956.72;5049403;28;20859;-85
2022/12/19 17:49:26;;;;;;;31.60;15.50;;;;;;;17.37;100.00;101963.94;5015853;28;20456;-86
2022/12/19 17:51:54;;;;;;;22.27;12.90;;;;;;;17.32;100.00;101958.22;5009499;28;20443;-86
2022/12/19 17:54:23;;;;;;;25.33;12.87;;;;;;;17.27;100.00;101953.31;5028608;28;20458;-87
2022/12/19 17:56:51;;;;;;;23.00;10.70;;;;;;;17.27;100.00;101954.16;5026408;28;20440;-86
2022/12/19 17:59:21;;;;;;;22.03;9.83;;;;;;;17.22;100.00;101967.72;5046887;28;20430;-87
2022/12/19 18:01:49;;;;;;;17.90;9.07;;;;;;;17.17;100.00;101964.72;5039652;28;20970;-86
2022/12/19 18:04:19;;;;;;;16.63;9.00;;;;;;;17.15;100.00;101958.56;5011358;28;20517;-86
2022/12/19 18:06:48;;;;;;;53.10;33.13;;;;;;;17.14;100.00;101954.09;5031738;28;20487;-87
2022/12/19 18:09:36;;;;;;;95.67;57.30;;;;;;;17.16;100.00;101957.50;5046065;28;20452;-87
2022/12/19 18:12:05;;;;;;;76.37;50.87;;;;;;;17.18;100.00;101949.00;5032506;28;20466;-86
2022/12/19 18:14:33;;;;;;;61.57;41.73;;;;;;;17.16;100.00;101951.13;5028547;28;20580;-86
2022/12/19 18:17:01;;;;;;;67.93;41.50;;;;;;;17.23;100.00;101955.63;5036671;28;20790;-86
2022/12/19 18:19:31;;;;;;;121.17;83.27;;;;;;;17.22;100.00;101953.91;5014268;28;20455;-87
2022/12/19 18:21:59;;;;;;;121.37;83.70;;;;;;;17.25;100.00;101947.97;5035521;28;20463;-86
2022/12/19 18:24:27;;;;;;;120.37;88.30;;;;;;;17.26;100.00;101944.16;5012795;28;20551;-86
2022/12/19 18:26:56;;;;;;;69.40;58.10;;;;;;;17.29;100.00;101947.56;5030693;28;20486;-86
2022/12/19 18:29:25;;;;;;;108.97;74.47;;;;;;;17.29;100.00;101940.13;5034794;28;20475;-87
2022/12/19 18:31:55;;;;;;;95.90;67.67;;;;;;;17.32;100.00;101945.22;5017538;28;20466;-86
2022/12/19 18:34:26;;;;;;;106.53;81.90;;;;;;;17.32;100.00;101944.38;5035698;28;20475;-87
2022/12/19 18:37:04;;;;;;;79.90;56.70;;;;;;;17.35;100.00;101947.56;5064991;28;20882;-88
2022/12/19 18:39:36;;;;;;;58.63;47.27;;;;;;;17.35;100.00;101943.94;5046087;28;20842;-87
2022/12/19 18:42:30;;;;;;;53.97;40.73;;;;;;;17.37;100.00;101939.06;5040932;28;20451;-87
2022/12/19 18:44:58;;;;;;;36.73;25.60;;;;;;;17.34;100.00;101945.00;5033532;28;20929;-86
2022/12/19 18:47:26;;;;;;;35.70;24.50;;;;;;;17.33;100.00;101946.91;5016543;28;20581;-86
2022/12/19 18:49:54;;;;;;;29.70;20.17;;;;;;;17.34;100.00;101936.72;5023811;28;20928;-86
2022/12/19 18:52:25;;;;;;;31.90;20.77;;;;;;;17.38;100.00;101949.06;5038959;28;20542;-88
2022/12/19 18:54:53;;;;;;;25.77;19.20;;;;;;;17.36;100.00;101945.66;5038512;28;20451;-88
2022/12/19 18:57:20;;;;;;;37.17;22.50;;;;;;;17.38;100.00;101947.16;5054486;28;20958;-87
2022/12/19 18:59:49;;;;;;;42.80;24.43;;;;;;;17.37;100.00;101948.22;5037997;28;20514;-88
2022/12/19 19:02:26;;;;;;;29.87;15.10;;;;;;;17.41;100.00;101949.50;5051667;28;20526;-88
2022/12/19 19:04:55;;;;;;;30.10;12.50;;;;;;;17.42;100.00;101953.13;5036675;28;20451;-89
2022/12/19 19:07:24;;;;;;;30.00;10.87;;;;;;;17.37;100.00;101939.91;5018671;28;20505;-88
2022/12/19 19:09:53;;;;;;;14.33;9.10;;;;;;;17.38;100.00;101946.28;5015641;28;20550;-89
2022/12/19 19:12:24;;;;;;;17.90;8.57;;;;;;;17.36;100.00;101942.88;5025630;28;20506;-89
2022/12/19 19:14:53;;;;;;;16.07;8.33;;;;;;;17.36;100.00;101946.50;5040688;28;20458;-89
2022/12/19 19:17:26;;;;;;;14.90;8.20;;;;;;;17.39;100.00;101953.53;5035702;28;21012;-90
2022/12/19 19:19:54;;;;;;;12.10;7.13;;;;;;;17.36;100.00;101949.25;5055516;28;20546;-90
2022/12/19 19:22:23;;;;;;;18.57;6.83;;;;;;;17.39;100.00;101948.00;5023170;28;20469;-89
2022/12/19 19:24:51;;;;;;;38.77;18.77;;;;;;;17.37;100.00;101942.69;5018768;28;20529;-89
2022/12/19 19:27:19;;;;;;;27.20;11.27;;;;;;;17.35;100.00;101952.22;5012880;28;20496;-90
2022/12/19 19:29:47;;;;;;;119.30;57.40;;;;;;;17.35;100.00;101955.00;5036648;28;20536;-90
2022/12/19 19:32:15;;;;;;;60.83;28.03;;;;;;;17.34;100.00;101950.53;5023902;28;20960;-89
2022/12/19 19:34:44;;;;;;;82.87;47.63;;;;;;;17.36;100.00;101953.94;5013917;28;20553;-89
2022/12/19 19:37:14;;;;;;;31.43;14.70;;;;;;;17.36;100.00;101960.31;5035632;28;20957;-89
2022/12/19 19:39:43;;;;;;;14.40;8.40;;;;;;;17.36;100.00;101965.00;5052206;28;20535;-89
2022/12/19 19:42:12;;;;;;;23.93;8.60;;;;;;;17.32;100.00;101960.97;5041852;28;20447;-88
2022/12/19 19:44:53;;;;;;;45.73;29.00;;;;;;;17.36;100.00;101970.53;5028818;28;20440;-87
2022/12/19 19:47:30;;;;;;;28.30;14.83;;;;;;;17.36;100.00;101965.84;5043921;28;20486;-88
2022/12/19 19:49:59;;;;;;;31.87;14.80;;;;;;;17.34;100.00;101962.44;5036717;28;20469;-88
2022/12/19 19:52:28;;;;;;;23.70;14.80;;;;;;;17.34;100.00;101961.59;5037866;28;20453;-91
2022/12/19 19:55:14;;;;;;;25.00;14.67;;;;;;;17.36;100.00;101959.47;5016011;28;20848;-91
2022/12/19 19:57:46;;;;;;;23.77;10.93;;;;;;;17.36;100.00;101976.06;5050584;28;20484;-91
2022/12/19 20:00:16;;;;;;;26.90;12.80;;;;;;;17.35;100.00;101974.34;5085371;28;20435;-91
2022/12/19 20:26:27;;;;;;;71.20;42.20;;;;;;;17.37;100.00;101992.44;5033298;28;20528;-92
2022/12/19 20:29:10;;;;;;;35.00;20.83;;;;;;;17.33;100.00;101987.50;5004451;28;20456;-92
2022/12/19 20:47:51;;;;;;;24.37;10.83;;;;;;;17.39;100.00;101992.22;5030088;28;20525;-90
2022/12/19 20:58:27;;;;;;;25.07;13.90;;;;;;;17.29;100.00;101980.72;4914745;29;20524;-91
2022/12/19 21:28:05;;;;;;;35.83;23.40;;;;;;;17.33;100.00;101979.22;4758455;30;20549;-94
2022/12/19 21:49:41;;;;;;;41.77;27.17;;;;;;;17.29;100.00;101975.19;4753624;30;20497;-88
2022/12/19 22:03:46;;;;;;;43.87;25.37;;;;;;;17.39;100.00;101987.53;4816158;29;20511;-94
2022/12/19 22:10:10;;;;;;;37.97;21.60;;;;;;;17.39;100.00;101982.03;4854956;29;20460;-93
2022/12/19 22:16:45;;;;;;;37.67;19.20;;;;;;;17.41;100.00;101974.38;4868617;29;20442;-93
2022/12/19 22:19:14;;;;;;;28.60;14.67;;;;;;;17.31;100.00;101970.31;4855689;29;20521;-93
2022/12/19 22:21:49;;;;;;;27.60;15.10;;;;;;;17.41;100.00;101984.56;4888096;29;20453;-90
2022/12/19 22:24:23;;;;;;;27.57;14.07;;;;;;;17.39;100.00;101975.63;4886233;29;20458;-90
2022/12/19 22:26:53;;;;;;;22.60;11.60;;;;;;;17.44;100.00;101979.50;4944186;28;20487;-90
2022/12/19 22:29:21;;;;;;;28.20;10.30;;;;;;;17.38;100.00;101977.56;4954438;28;20500;-89
2022/12/19 22:31:53;;;;;;;23.77;9.80;;;;;;;17.42;100.00;101978.00;5004044;28;20488;-91
2022/12/19 22:34:29;;;;;;;24.57;9.57;;;;;;;17.45;100.00;101972.06;5010847;28;20547;-91
2022/12/19 22:37:07;;;;;;;36.67;9.27;;;;;;;17.45;100.00;101967.38;5027514;28;20920;-91
2022/12/19 22:39:37;;;;;;;24.03;7.70;;;;;;;17.38;100.00;101968.41;5007197;28;20430;-89
2022/12/19 22:42:07;;;;;;;19.00;6.90;;;;;;;17.47;100.00;101962.50;5018106;28;20521;-91
2022/12/19 22:44:36;;;;;;;15.20;7.10;;;;;;;17.45;100.00;101958.22;5026326;28;20485;-90
2022/12/19 22:47:20;;;;;;;18.37;7.00;;;;;;;17.46;100.00;101965.47;4971403;28;20914;-91
2022/12/19 22:50:01;;;;;;;23.43;7.57;;;;;;;17.47;100.00;101973.53;4876496;29;20456;-91
2022/12/19 22:52:30;;;;;;;40.13;9.00;;;;;;;17.44;100.00;101962.06;4935203;29;20931;-90
2022/12/19 22:54:58;;;;;;;33.10;14.73;;;;;;;17.49;100.00;101965.03;4919024;29;20480;-91
2022/12/19 22:57:31;;;;;;;40.90;18.20;;;;;;;17.50;100.00;101966.75;4919850;29;20491;-89
2022/12/19 23:00:11;;;;;;;39.40;15.70;;;;;;;17.51;100.00;101965.69;4916786;29;20458;-90
2022/12/19 23:02:40;;;;;;;59.13;27.17;;;;;;;17.48;100.00;101968.88;4919623;29;20452;-90
2022/12/19 23:05:23;;;;;;;55.87;21.63;;;;;;;17.51;100.00;101962.94;4935029;29;20487;-90
2022/12/19 23:08:05;;;;;;;49.83;24.53;;;;;;;17.51;100.00;101968.47;4909753;29;20509;-90
2022/12/19 23:10:41;;;;;;;47.07;21.77;;;;;;;17.51;100.00;101968.47;4917275;29;20445;-90
2022/12/19 23:13:09;;;;;;;42.07;15.03;;;;;;;17.51;100.00;101957.41;4894561;29;20460;-90
2022/12/19 23:15:44;;;;;;;40.97;15.07;;;;;;;17.51;100.00;101968.47;4964394;28;20485;-90
2022/12/19 23:18:14;;;;;;;33.30;11.03;;;;;;;17.53;100.00;101966.31;4979403;28;20473;-90
2022/12/19 23:20:42;;;;;;;34.07;13.10;;;;;;;17.53;100.00;101966.31;4978610;28;20492;-90
2022/12/19 23:23:11;;;;;;;37.30;13.63;;;;;;;17.50;100.00;101962.06;4979144;28;20444;-90
2022/12/19 23:25:39;;;;;;;38.43;14.50;;;;;;;17.50;100.00;101955.69;5032001;28;20521;-91
2022/12/19 23:28:08;;;;;;;34.30;12.90;;;;;;;17.48;100.00;101952.28;4996657;28;20570;-90
2022/12/19 23:30:37;;;;;;;46.87;16.17;;;;;;;17.46;100.00;101948.88;5036689;28;20447;-91
2022/12/19 23:33:06;;;;;;;43.00;14.80;;;;;;;17.49;100.00;101945.69;5022844;28;20442;-91
2022/12/19 23:35:34;;;;;;;50.63;16.17;;;;;;;17.48;100.00;101949.53;5014087;28;20485;-90
2022/12/19 23:38:01;;;;;;;60.07;20.23;;;;;;;17.52;100.00;101953.53;5054464;28;20459;-90
2022/12/19 23:40:35;;;;;;;47.17;16.53;;;;;;;17.44;100.00;101929.72;5039104;28;20475;-90
2022/12/19 23:43:04;;;;;;;38.33;14.23;;;;;;;17.50;100.00;101944.63;5022182;28;20954;-90
2022/12/19 23:45:37;;;;;;;34.60;11.23;;;;;;;17.50;100.00;101939.97;5013949;28;20442;-90
2022/12/19 23:48:18;;;;;;;20.43;8.30;;;;;;;17.53;100.00;101949.72;5049365;28;20488;-90
2022/12/19 23:50:58;;;;;;;26.03;7.30;;;;;;;17.53;100.00;101938.66;5038255;28;20442;-91
2022/12/19 23:53:26;;;;;;;19.73;5.53;;;;;;;17.49;100.00;101934.63;5055647;28;20901;-90
2022/12/19 23:56:05;;;;;;;26.83;5.13;;;;;;;17.52;100.00;101942.50;5021617;28;20504;-90
2022/12/19 23:58:35;;;;;;;21.03;5.60;;;;;;;17.52;100.00;101948.88;5038715;28;20450;-90
